sensor_id;sensor_type;location;lat;lon;timestamp;P1;durP1;ratioP1;P2;durP2;ratioP2
65863;SDS011;52639;51.180;20.460;2024-03-22T00:02:15;31.38;;;16.15;;
65863;SDS011;52639;51.180;20.460;2024-03-22T00:10:19;30.80;;;14.50;;
65863;SDS011;52639;51.180;20.460;2024-03-22T00:14:22;31.65;;;15.07;;
65863;SDS011;52639;51.180;20.460;2024-03-22T00:18:24;35.40;;;16.60;;
65863;SDS011;52639;51.180;20.460;2024-03-22T00:26:28;35.28;;;16.48;;
65863;SDS011;52639;51.180;20.460;2024-03-22T00:30:30;33.60;;;17.23;;
65863;SDS011;52639;51.180;20.460;2024-03-22T00:34:32;36.47;;;15.98;;
65863;SDS011;52639;51.180;20.460;2024-03-22T00:38:35;35.67;;;17.20;;
65863;SDS011;52639;51.180;20.460;2024-03-22T00:42:37;37.30;;;18.02;;
65863;SDS011;52639;51.180;20.460;2024-03-22T00:50:42;36.88;;;17.65;;
65863;SDS011;52639;51.180;20.460;2024-03-22T00:58:46;36.67;;;17.08;;
65863;SDS011;52639;51.180;20.460;2024-03-22T01:06:52;30.13;;;15.15;;
65863;SDS011;52639;51.180;20.460;2024-03-22T01:14:55;31.33;;;16.48;;
65863;SDS011;52639;51.180;20.460;2024-03-22T01:23:00;40.90;;;17.55;;
65863;SDS011;52639;51.180;20.460;2024-03-22T01:27:02;33.90;;;16.98;;
65863;SDS011;52639;51.180;20.460;2024-03-22T01:31:05;38.28;;;18.83;;
65863;SDS011;52639;51.180;20.460;2024-03-22T01:39:10;39.22;;;18.60;;
65863;SDS011;52639;51.180;20.460;2024-03-22T01:43:14;32.20;;;16.42;;
65863;SDS011;52639;51.180;20.460;2024-03-22T01:51:20;35.50;;;18.05;;
65863;SDS011;52639;51.180;20.460;2024-03-22T01:55:22;37.40;;;17.50;;
65863;SDS011;52639;51.180;20.460;2024-03-22T01:59:24;32.95;;;16.88;;
65863;SDS011;52639;51.180;20.460;2024-03-22T02:03:27;40.50;;;20.17;;
65863;SDS011;52639;51.180;20.460;2024-03-22T02:11:32;33.00;;;16.58;;
65863;SDS011;52639;51.180;20.460;2024-03-22T02:15:34;34.90;;;16.60;;
65863;SDS011;52639;51.180;20.460;2024-03-22T02:23:39;33.28;;;16.63;;
65863;SDS011;52639;51.180;20.460;2024-03-22T02:27:42;37.33;;;18.75;;
65863;SDS011;52639;51.180;20.460;2024-03-22T02:31:44;43.15;;;22.40;;
65863;SDS011;52639;51.180;20.460;2024-03-22T02:39:50;45.78;;;21.40;;
65863;SDS011;52639;51.180;20.460;2024-03-22T02:43:52;41.85;;;21.02;;
65863;SDS011;52639;51.180;20.460;2024-03-22T02:47:56;43.22;;;22.88;;
65863;SDS011;52639;51.180;20.460;2024-03-22T02:51:58;54.85;;;23.10;;
65863;SDS011;52639;51.180;20.460;2024-03-22T03:00:03;50.70;;;22.42;;
65863;SDS011;52639;51.180;20.460;2024-03-22T03:04:06;50.95;;;23.52;;
65863;SDS011;52639;51.180;20.460;2024-03-22T03:08:08;48.78;;;23.55;;
65863;SDS011;52639;51.180;20.460;2024-03-22T03:12:12;43.88;;;21.83;;
65863;SDS011;52639;51.180;20.460;2024-03-22T03:16:14;47.50;;;22.00;;
65863;SDS011;52639;51.180;20.460;2024-03-22T03:20:16;47.55;;;23.20;;
65863;SDS011;52639;51.180;20.460;2024-03-22T03:24:19;44.95;;;21.25;;
65863;SDS011;52639;51.180;20.460;2024-03-22T03:28:22;48.80;;;22.52;;
65863;SDS011;52639;51.180;20.460;2024-03-22T03:32:23;39.50;;;20.08;;
65863;SDS011;52639;51.180;20.460;2024-03-22T03:36:26;42.10;;;20.67;;
65863;SDS011;52639;51.180;20.460;2024-03-22T03:44:31;46.42;;;22.70;;
65863;SDS011;52639;51.180;20.460;2024-03-22T03:48:33;51.97;;;26.17;;
65863;SDS011;52639;51.180;20.460;2024-03-22T03:56:37;48.33;;;24.88;;
65863;SDS011;52639;51.180;20.460;2024-03-22T04:00:40;56.75;;;26.05;;
65863;SDS011;52639;51.180;20.460;2024-03-22T04:04:42;54.45;;;26.33;;
65863;SDS011;52639;51.180;20.460;2024-03-22T04:08:43;56.67;;;27.97;;
65863;SDS011;52639;51.180;20.460;2024-03-22T04:16:49;54.50;;;25.23;;
65863;SDS011;52639;51.180;20.460;2024-03-22T04:20:54;55.53;;;25.40;;
65863;SDS011;52639;51.180;20.460;2024-03-22T04:24:56;59.67;;;28.38;;
65863;SDS011;52639;51.180;20.460;2024-03-22T04:33:02;61.80;;;30.10;;
65863;SDS011;52639;51.180;20.460;2024-03-22T04:37:04;60.28;;;30.30;;
65863;SDS011;52639;51.180;20.460;2024-03-22T04:41:07;66.82;;;29.48;;
65863;SDS011;52639;51.180;20.460;2024-03-22T04:45:10;62.47;;;29.02;;
65863;SDS011;52639;51.180;20.460;2024-03-22T04:53:15;66.80;;;30.15;;
65863;SDS011;52639;51.180;20.460;2024-03-22T05:01:19;64.68;;;31.83;;
65863;SDS011;52639;51.180;20.460;2024-03-22T05:09:24;62.75;;;29.85;;
65863;SDS011;52639;51.180;20.460;2024-03-22T05:17:28;54.17;;;26.45;;
65863;SDS011;52639;51.180;20.460;2024-03-22T05:21:33;58.45;;;26.90;;
65863;SDS011;52639;51.180;20.460;2024-03-22T05:25:35;60.17;;;27.33;;
65863;SDS011;52639;51.180;20.460;2024-03-22T05:29:38;65.32;;;30.00;;
65863;SDS011;52639;51.180;20.460;2024-03-22T05:33:40;57.33;;;27.77;;
65863;SDS011;52639;51.180;20.460;2024-03-22T05:41:45;49.40;;;24.73;;
65863;SDS011;52639;51.180;20.460;2024-03-22T05:45:47;62.10;;;27.65;;
65863;SDS011;52639;51.180;20.460;2024-03-22T05:53:53;48.78;;;24.27;;
65863;SDS011;52639;51.180;20.460;2024-03-22T05:57:55;62.85;;;28.73;;
65863;SDS011;52639;51.180;20.460;2024-03-22T06:01:56;55.88;;;26.23;;
65863;SDS011;52639;51.180;20.460;2024-03-22T06:10:03;44.83;;;23.02;;
65863;SDS011;52639;51.180;20.460;2024-03-22T06:14:05;44.63;;;22.50;;
65863;SDS011;52639;51.180;20.460;2024-03-22T06:18:07;51.47;;;24.38;;
65863;SDS011;52639;51.180;20.460;2024-03-22T06:26:13;46.20;;;22.15;;
65863;SDS011;52639;51.180;20.460;2024-03-22T06:30:14;48.13;;;24.30;;
65863;SDS011;52639;51.180;20.460;2024-03-22T06:34:16;44.55;;;23.45;;
65863;SDS011;52639;51.180;20.460;2024-03-22T06:38:18;48.42;;;23.98;;
65863;SDS011;52639;51.180;20.460;2024-03-22T06:42:21;39.67;;;20.90;;
65863;SDS011;52639;51.180;20.460;2024-03-22T06:46:24;42.95;;;22.27;;
65863;SDS011;52639;51.180;20.460;2024-03-22T06:50:26;38.92;;;21.08;;
65863;SDS011;52639;51.180;20.460;2024-03-22T06:58:35;35.70;;;20.38;;
65863;SDS011;52639;51.180;20.460;2024-03-22T07:02:39;35.35;;;19.70;;
65863;SDS011;52639;51.180;20.460;2024-03-22T07:10:46;32.33;;;16.52;;
65863;SDS011;52639;51.180;20.460;2024-03-22T07:14:49;27.50;;;16.23;;
65863;SDS011;52639;51.180;20.460;2024-03-22T07:18:51;28.98;;;14.63;;
65863;SDS011;52639;51.180;20.460;2024-03-22T07:22:53;25.90;;;13.45;;
65863;SDS011;52639;51.180;20.460;2024-03-22T07:26:55;24.73;;;13.05;;
65863;SDS011;52639;51.180;20.460;2024-03-22T07:35:06;20.38;;;10.60;;
65863;SDS011;52639;51.180;20.460;2024-03-22T07:39:08;19.63;;;10.30;;
65863;SDS011;52639;51.180;20.460;2024-03-22T07:43:10;16.00;;;9.65;;
65863;SDS011;52639;51.180;20.460;2024-03-22T07:47:16;17.50;;;8.18;;
65863;SDS011;52639;51.180;20.460;2024-03-22T07:51:18;16.88;;;9.75;;
65863;SDS011;52639;51.180;20.460;2024-03-22T07:55:22;17.05;;;9.00;;
65863;SDS011;52639;51.180;20.460;2024-03-22T07:59:24;17.40;;;9.98;;
65863;SDS011;52639;51.180;20.460;2024-03-22T08:03:28;17.48;;;8.65;;
65863;SDS011;52639;51.180;20.460;2024-03-22T08:07:30;17.70;;;8.95;;
65863;SDS011;52639;51.180;20.460;2024-03-22T08:11:31;14.95;;;8.98;;
65863;SDS011;52639;51.180;20.460;2024-03-22T08:15:34;16.00;;;8.60;;
65863;SDS011;52639;51.180;20.460;2024-03-22T08:19:38;14.45;;;7.88;;
65863;SDS011;52639;51.180;20.460;2024-03-22T08:23:40;14.23;;;7.40;;
65863;SDS011;52639;51.180;20.460;2024-03-22T08:27:42;16.42;;;7.78;;
65863;SDS011;52639;51.180;20.460;2024-03-22T08:31:44;14.80;;;7.65;;
65863;SDS011;52639;51.180;20.460;2024-03-22T08:39:50;13.88;;;7.53;;
65863;SDS011;52639;51.180;20.460;2024-03-22T08:43:52;13.85;;;7.45;;
65863;SDS011;52639;51.180;20.460;2024-03-22T08:47:54;13.95;;;7.28;;
65863;SDS011;52639;51.180;20.460;2024-03-22T08:51:57;12.90;;;7.20;;
65863;SDS011;52639;51.180;20.460;2024-03-22T08:56:00;12.23;;;7.35;;
65863;SDS011;52639;51.180;20.460;2024-03-22T09:00:01;13.80;;;7.50;;
65863;SDS011;52639;51.180;20.460;2024-03-22T09:04:03;14.15;;;8.05;;
65863;SDS011;52639;51.180;20.460;2024-03-22T09:08:06;14.98;;;8.05;;
65863;SDS011;52639;51.180;20.460;2024-03-22T09:12:09;13.25;;;7.55;;
65863;SDS011;52639;51.180;20.460;2024-03-22T09:16:11;13.02;;;7.65;;
65863;SDS011;52639;51.180;20.460;2024-03-22T09:20:13;12.07;;;7.18;;
65863;SDS011;52639;51.180;20.460;2024-03-22T09:24:17;16.65;;;8.63;;
65863;SDS011;52639;51.180;20.460;2024-03-22T09:28:19;13.60;;;7.90;;
65863;SDS011;52639;51.180;20.460;2024-03-22T09:32:21;13.43;;;7.68;;
65863;SDS011;52639;51.180;20.460;2024-03-22T09:36:23;15.05;;;8.77;;
65863;SDS011;52639;51.180;20.460;2024-03-22T09:40:26;14.57;;;8.40;;
65863;SDS011;52639;51.180;20.460;2024-03-22T09:44:28;14.93;;;8.48;;
65863;SDS011;52639;51.180;20.460;2024-03-22T09:48:31;13.23;;;7.97;;
65863;SDS011;52639;51.180;20.460;2024-03-22T09:52:35;13.30;;;7.82;;
65863;SDS011;52639;51.180;20.460;2024-03-22T09:56:41;12.05;;;7.28;;
65863;SDS011;52639;51.180;20.460;2024-03-22T10:00:43;16.20;;;8.02;;
65863;SDS011;52639;51.180;20.460;2024-03-22T10:04:45;12.68;;;7.65;;
65863;SDS011;52639;51.180;20.460;2024-03-22T10:08:47;10.45;;;7.28;;
65863;SDS011;52639;51.180;20.460;2024-03-22T10:12:51;12.93;;;8.05;;
65863;SDS011;52639;51.180;20.460;2024-03-22T10:16:53;10.80;;;7.28;;
65863;SDS011;52639;51.180;20.460;2024-03-22T10:20:59;10.88;;;6.40;;
65863;SDS011;52639;51.180;20.460;2024-03-22T10:25:04;12.52;;;6.93;;
65863;SDS011;52639;51.180;20.460;2024-03-22T10:29:13;10.82;;;6.65;;
65863;SDS011;52639;51.180;20.460;2024-03-22T10:33:15;11.05;;;6.70;;
65863;SDS011;52639;51.180;20.460;2024-03-22T10:37:17;10.45;;;5.97;;
65863;SDS011;52639;51.180;20.460;2024-03-22T10:41:20;10.13;;;6.57;;
65863;SDS011;52639;51.180;20.460;2024-03-22T10:45:31;10.15;;;6.55;;
65863;SDS011;52639;51.180;20.460;2024-03-22T10:49:34;13.00;;;8.10;;
65863;SDS011;52639;51.180;20.460;2024-03-22T10:53:39;14.32;;;9.00;;
65863;SDS011;52639;51.180;20.460;2024-03-22T10:57:42;15.50;;;8.20;;
65863;SDS011;52639;51.180;20.460;2024-03-22T11:01:46;13.90;;;8.55;;
65863;SDS011;52639;51.180;20.460;2024-03-22T11:05:49;15.82;;;9.05;;
65863;SDS011;52639;51.180;20.460;2024-03-22T11:09:52;14.65;;;9.63;;
65863;SDS011;52639;51.180;20.460;2024-03-22T11:13:58;19.10;;;10.38;;
65863;SDS011;52639;51.180;20.460;2024-03-22T11:18:01;17.55;;;10.30;;
65863;SDS011;52639;51.180;20.460;2024-03-22T11:22:04;17.55;;;10.05;;
65863;SDS011;52639;51.180;20.460;2024-03-22T11:26:08;17.83;;;9.93;;
65863;SDS011;52639;51.180;20.460;2024-03-22T11:30:11;14.55;;;8.98;;
65863;SDS011;52639;51.180;20.460;2024-03-22T11:34:14;16.80;;;9.23;;
65863;SDS011;52639;51.180;20.460;2024-03-22T11:38:17;14.10;;;8.60;;
65863;SDS011;52639;51.180;20.460;2024-03-22T11:42:19;16.83;;;8.07;;
65863;SDS011;52639;51.180;20.460;2024-03-22T11:46:21;14.77;;;7.82;;
65863;SDS011;52639;51.180;20.460;2024-03-22T11:50:25;15.43;;;8.50;;
65863;SDS011;52639;51.180;20.460;2024-03-22T11:54:27;14.18;;;7.00;;
65863;SDS011;52639;51.180;20.460;2024-03-22T11:58:29;16.48;;;6.88;;
65863;SDS011;52639;51.180;20.460;2024-03-22T12:02:32;11.83;;;6.90;;
65863;SDS011;52639;51.180;20.460;2024-03-22T12:06:36;10.27;;;6.05;;
65863;SDS011;52639;51.180;20.460;2024-03-22T12:10:38;9.88;;;5.68;;
65863;SDS011;52639;51.180;20.460;2024-03-22T12:14:40;12.50;;;6.45;;
65863;SDS011;52639;51.180;20.460;2024-03-22T12:18:42;12.07;;;6.40;;
65863;SDS011;52639;51.180;20.460;2024-03-22T12:22:46;9.63;;;6.43;;
65863;SDS011;52639;51.180;20.460;2024-03-22T12:26:48;11.73;;;5.90;;
65863;SDS011;52639;51.180;20.460;2024-03-22T12:30:50;14.98;;;6.78;;
65863;SDS011;52639;51.180;20.460;2024-03-22T12:34:52;9.82;;;5.90;;
65863;SDS011;52639;51.180;20.460;2024-03-22T12:38:55;9.65;;;6.10;;
65863;SDS011;52639;51.180;20.460;2024-03-22T12:42:57;10.10;;;6.05;;
65863;SDS011;52639;51.180;20.460;2024-03-22T12:46:59;9.10;;;5.65;;
65863;SDS011;52639;51.180;20.460;2024-03-22T12:51:01;10.57;;;5.97;;
65863;SDS011;52639;51.180;20.460;2024-03-22T12:55:05;9.13;;;5.80;;
65863;SDS011;52639;51.180;20.460;2024-03-22T12:59:07;10.77;;;6.07;;
65863;SDS011;52639;51.180;20.460;2024-03-22T13:03:09;9.02;;;5.53;;
65863;SDS011;52639;51.180;20.460;2024-03-22T13:07:12;13.75;;;7.40;;
65863;SDS011;52639;51.180;20.460;2024-03-22T13:11:14;13.50;;;8.03;;
65863;SDS011;52639;51.180;20.460;2024-03-22T13:15:19;9.07;;;6.00;;
65863;SDS011;52639;51.180;20.460;2024-03-22T13:19:21;9.30;;;6.20;;
65863;SDS011;52639;51.180;20.460;2024-03-22T13:23:23;10.73;;;6.68;;
65863;SDS011;52639;51.180;20.460;2024-03-22T13:27:26;9.30;;;6.50;;
65863;SDS011;52639;51.180;20.460;2024-03-22T13:31:29;11.27;;;6.18;;
65863;SDS011;52639;51.180;20.460;2024-03-22T13:35:31;8.85;;;5.85;;
65863;SDS011;52639;51.180;20.460;2024-03-22T13:39:33;9.98;;;6.53;;
65863;SDS011;52639;51.180;20.460;2024-03-22T13:43:37;11.15;;;6.80;;
65863;SDS011;52639;51.180;20.460;2024-03-22T13:47:41;13.63;;;7.80;;
65863;SDS011;52639;51.180;20.460;2024-03-22T13:51:43;11.35;;;7.10;;
65863;SDS011;52639;51.180;20.460;2024-03-22T13:55:46;13.32;;;7.80;;
65863;SDS011;52639;51.180;20.460;2024-03-22T13:59:50;11.70;;;7.43;;
65863;SDS011;52639;51.180;20.460;2024-03-22T14:03:52;11.05;;;6.90;;
65863;SDS011;52639;51.180;20.460;2024-03-22T14:07:54;10.80;;;6.90;;
65863;SDS011;52639;51.180;20.460;2024-03-22T14:11:56;11.25;;;6.22;;
65863;SDS011;52639;51.180;20.460;2024-03-22T14:16:01;10.13;;;7.03;;
65863;SDS011;52639;51.180;20.460;2024-03-22T14:20:04;10.90;;;6.68;;
65863;SDS011;52639;51.180;20.460;2024-03-22T14:24:14;11.35;;;6.93;;
65863;SDS011;52639;51.180;20.460;2024-03-22T14:28:16;12.73;;;7.50;;
65863;SDS011;52639;51.180;20.460;2024-03-22T14:32:19;11.48;;;6.88;;
65863;SDS011;52639;51.180;20.460;2024-03-22T14:36:21;11.48;;;6.75;;
65863;SDS011;52639;51.180;20.460;2024-03-22T14:40:24;8.60;;;5.88;;
65863;SDS011;52639;51.180;20.460;2024-03-22T14:44:26;13.35;;;7.20;;
65863;SDS011;52639;51.180;20.460;2024-03-22T14:48:30;12.38;;;5.82;;
65863;SDS011;52639;51.180;20.460;2024-03-22T14:52:32;12.10;;;6.00;;
65863;SDS011;52639;51.180;20.460;2024-03-22T14:56:34;10.57;;;5.93;;
65863;SDS011;52639;51.180;20.460;2024-03-22T15:00:36;12.57;;;6.70;;
65863;SDS011;52639;51.180;20.460;2024-03-22T15:04:41;13.57;;;7.15;;
65863;SDS011;52639;51.180;20.460;2024-03-22T15:08:44;20.35;;;9.95;;
65863;SDS011;52639;51.180;20.460;2024-03-22T15:12:46;19.33;;;9.77;;
65863;SDS011;52639;51.180;20.460;2024-03-22T15:16:49;24.00;;;9.32;;
65863;SDS011;52639;51.180;20.460;2024-03-22T15:20:52;47.47;;;18.40;;
65863;SDS011;52639;51.180;20.460;2024-03-22T15:24:54;15.32;;;7.93;;
65863;SDS011;52639;51.180;20.460;2024-03-22T15:28:56;26.30;;;12.23;;
65863;SDS011;52639;51.180;20.460;2024-03-22T15:32:59;35.33;;;16.48;;
65863;SDS011;52639;51.180;20.460;2024-03-22T15:37:05;44.65;;;17.92;;
65863;SDS011;52639;51.180;20.460;2024-03-22T15:41:12;58.20;;;23.15;;
65863;SDS011;52639;51.180;20.460;2024-03-22T15:45:14;58.05;;;24.92;;
65863;SDS011;52639;51.180;20.460;2024-03-22T15:49:17;66.05;;;26.17;;
65863;SDS011;52639;51.180;20.460;2024-03-22T15:53:20;25.45;;;11.85;;
65863;SDS011;52639;51.180;20.460;2024-03-22T15:57:21;26.35;;;11.65;;
65863;SDS011;52639;51.180;20.460;2024-03-22T16:01:23;132.48;;;51.63;;
65863;SDS011;52639;51.180;20.460;2024-03-22T16:05:25;90.25;;;41.53;;
65863;SDS011;52639;51.180;20.460;2024-03-22T16:09:29;34.20;;;23.58;;
65863;SDS011;52639;51.180;20.460;2024-03-22T16:13:31;23.52;;;16.02;;
65863;SDS011;52639;51.180;20.460;2024-03-22T16:17:33;25.55;;;13.07;;
65863;SDS011;52639;51.180;20.460;2024-03-22T16:21:36;15.38;;;9.82;;
65863;SDS011;52639;51.180;20.460;2024-03-22T16:25:39;17.83;;;10.48;;
65863;SDS011;52639;51.180;20.460;2024-03-22T16:29:41;27.33;;;15.95;;
65863;SDS011;52639;51.180;20.460;2024-03-22T16:33:43;28.73;;;16.48;;
65863;SDS011;52639;51.180;20.460;2024-03-22T16:41:50;21.33;;;13.18;;
65863;SDS011;52639;51.180;20.460;2024-03-22T16:45:53;22.98;;;13.73;;
65863;SDS011;52639;51.180;20.460;2024-03-22T16:49:58;24.95;;;13.68;;
65863;SDS011;52639;51.180;20.460;2024-03-22T16:54:03;15.77;;;9.38;;
65863;SDS011;52639;51.180;20.460;2024-03-22T16:58:12;50.92;;;19.05;;
65863;SDS011;52639;51.180;20.460;2024-03-22T17:02:14;80.07;;;29.48;;
65863;SDS011;52639;51.180;20.460;2024-03-22T17:06:16;30.38;;;13.82;;
65863;SDS011;52639;51.180;20.460;2024-03-22T17:10:19;34.50;;;13.90;;
65863;SDS011;52639;51.180;20.460;2024-03-22T17:14:26;39.13;;;15.73;;
65863;SDS011;52639;51.180;20.460;2024-03-22T17:18:33;72.30;;;24.73;;
65863;SDS011;52639;51.180;20.460;2024-03-22T17:22:35;31.25;;;12.70;;
65863;SDS011;52639;51.180;20.460;2024-03-22T17:26:38;50.20;;;18.70;;
65863;SDS011;52639;51.180;20.460;2024-03-22T17:30:45;37.88;;;15.70;;
65863;SDS011;52639;51.180;20.460;2024-03-22T17:34:47;39.30;;;14.60;;
65863;SDS011;52639;51.180;20.460;2024-03-22T17:38:49;61.13;;;21.73;;
65863;SDS011;52639;51.180;20.460;2024-03-22T17:46:54;54.30;;;18.83;;
65863;SDS011;52639;51.180;20.460;2024-03-22T17:50:56;42.13;;;17.67;;
65863;SDS011;52639;51.180;20.460;2024-03-22T17:59:00;53.65;;;19.45;;
65863;SDS011;52639;51.180;20.460;2024-03-22T18:07:05;20.95;;;10.88;;
65863;SDS011;52639;51.180;20.460;2024-03-22T18:11:07;30.50;;;15.50;;
65863;SDS011;52639;51.180;20.460;2024-03-22T18:15:10;39.58;;;16.90;;
65863;SDS011;52639;51.180;20.460;2024-03-22T18:23:16;49.78;;;20.13;;
65863;SDS011;52639;51.180;20.460;2024-03-22T18:27:18;33.25;;;14.82;;
65863;SDS011;52639;51.180;20.460;2024-03-22T18:31:20;30.52;;;15.35;;
65863;SDS011;52639;51.180;20.460;2024-03-22T18:35:24;31.58;;;14.23;;
65863;SDS011;52639;51.180;20.460;2024-03-22T18:39:27;18.42;;;10.40;;
65863;SDS011;52639;51.180;20.460;2024-03-22T18:43:29;26.48;;;12.05;;
65863;SDS011;52639;51.180;20.460;2024-03-22T18:47:33;26.10;;;13.43;;
65863;SDS011;52639;51.180;20.460;2024-03-22T18:51:36;20.23;;;10.40;;
65863;SDS011;52639;51.180;20.460;2024-03-22T18:55:44;17.25;;;10.15;;
65863;SDS011;52639;51.180;20.460;2024-03-22T18:59:45;30.75;;;16.67;;
65863;SDS011;52639;51.180;20.460;2024-03-22T19:03:50;26.92;;;14.32;;
65863;SDS011;52639;51.180;20.460;2024-03-22T19:07:54;31.10;;;17.00;;
65863;SDS011;52639;51.180;20.460;2024-03-22T19:11:58;16.23;;;9.88;;
65863;SDS011;52639;51.180;20.460;2024-03-22T19:16:02;16.45;;;9.95;;
65863;SDS011;52639;51.180;20.460;2024-03-22T19:20:06;15.00;;;8.23;;
65863;SDS011;52639;51.180;20.460;2024-03-22T19:24:11;15.10;;;9.45;;
65863;SDS011;52639;51.180;20.460;2024-03-22T19:28:15;18.92;;;9.77;;
65863;SDS011;52639;51.180;20.460;2024-03-22T19:32:17;17.27;;;8.90;;
65863;SDS011;52639;51.180;20.460;2024-03-22T19:36:19;15.63;;;9.60;;
65863;SDS011;52639;51.180;20.460;2024-03-22T19:40:27;53.05;;;20.95;;
65863;SDS011;52639;51.180;20.460;2024-03-22T19:44:29;38.85;;;18.45;;
65863;SDS011;52639;51.180;20.460;2024-03-22T19:48:31;20.33;;;11.15;;
65863;SDS011;52639;51.180;20.460;2024-03-22T19:52:34;21.33;;;12.70;;
65863;SDS011;52639;51.180;20.460;2024-03-22T19:56:37;19.45;;;10.70;;
65863;SDS011;52639;51.180;20.460;2024-03-22T20:00:39;18.70;;;10.85;;
65863;SDS011;52639;51.180;20.460;2024-03-22T20:08:44;22.67;;;12.85;;
65863;SDS011;52639;51.180;20.460;2024-03-22T20:12:47;20.77;;;11.85;;
65863;SDS011;52639;51.180;20.460;2024-03-22T20:16:50;22.98;;;12.57;;
65863;SDS011;52639;51.180;20.460;2024-03-22T20:20:53;20.42;;;10.65;;
65863;SDS011;52639;51.180;20.460;2024-03-22T20:24:55;24.77;;;12.75;;
65863;SDS011;52639;51.180;20.460;2024-03-22T20:33:00;18.20;;;10.35;;
